Time;durP1;ratioP1;P1;durP2;ratioP2;P2;SDS_P1;SDS_P2;PMS_P1;PMS_P2;Temp;Humidity;BMP_temperature;BMP_pressure;BME280_temperature;BME280_humidity;BME280_pressure;Samples;Min_cycle;Max_cycle;Signal;HPM_P1;HPM_P2
2022/03/27 00:00:13;;;;;;;21.47;13.33;;;;;;;4.56;86.88;103296.34;5049826;28;20194;-71
2022/03/27 00:02:39;;;;;;;22.43;12.40;;;;;;;4.59;87.38;103294.03;5052526;28;20190;-72
2022/03/27 00:05:05;;;;;;;19.27;12.73;;;;;;;4.59;87.84;103289.84;5050011;28;20194;-72
2022/03/27 00:07:30;;;;;;;20.33;12.27;;;;;;;4.56;87.15;103292.13;5046820;28;20194;-71
2022/03/27 00:09:55;;;;;;;17.67;12.23;;;;;;;4.56;86.98;103292.13;5031446;28;20201;-71
2022/03/27 00:12:21;;;;;;;17.47;11.47;;;;;;;4.51;86.93;103298.47;5031435;28;20219;-71
2022/03/27 00:14:46;;;;;;;16.23;10.90;;;;;;;4.47;87.30;103298.97;5041354;28;20205;-72
2022/03/27 00:17:11;;;;;;;22.40;12.73;;;;;;;4.45;88.27;103295.44;5049792;28;20202;-71
2022/03/27 00:19:37;;;;;;;26.67;14.27;;;;;;;4.62;89.19;103296.84;5039873;28;20197;-71
2022/03/27 00:22:03;;;;;;;18.77;11.37;;;;;;;4.59;89.28;103304.19;5031733;28;20182;-71
2022/03/27 00:24:29;;;;;;;23.03;11.47;;;;;;;4.53;89.05;103303.69;5031414;28;20204;-71
2022/03/27 00:26:55;;;;;;;20.80;12.40;;;;;;;4.51;89.54;103300.16;5031400;28;20210;-71
2022/03/27 00:29:22;;;;;;;15.33;10.47;;;;;;;4.38;88.75;103303.28;5031220;28;20197;-71
2022/03/27 00:31:47;;;;;;;19.23;10.43;;;;;;;4.27;88.29;103298.97;5031188;28;20220;-70
2022/03/27 00:34:13;;;;;;;19.97;10.27;;;;;;;4.27;88.71;103298.97;5036270;28;20284;-72
2022/03/27 00:36:38;;;;;;;23.33;12.57;;;;;;;4.25;88.38;103294.53;5050604;28;20205;-71
2022/03/27 00:39:04;;;;;;;20.03;12.20;;;;;;;4.24;88.81;103285.16;5031143;28;20238;-71
2022/03/27 00:41:30;;;;;;;24.87;13.67;;;;;;;4.24;88.80;103293.66;5030964;28;20189;-72
2022/03/27 00:43:56;;;;;;;21.30;12.93;;;;;;;4.18;88.63;103288.06;5037942;28;20825;-71
2022/03/27 00:46:21;;;;;;;19.67;13.03;;;;;;;4.05;88.11;103282.72;5049588;28;20209;-72
2022/03/27 00:48:46;;;;;;;23.87;12.93;;;;;;;4.07;88.28;103285.41;5052928;28;20192;-71
2022/03/27 00:51:12;;;;;;;22.97;12.63;;;;;;;4.10;86.95;103281.47;5060795;28;20309;-71
2022/03/27 00:53:37;;;;;;;21.53;11.93;;;;;;;4.11;87.34;103285.78;5047805;28;20257;-71
2022/03/27 00:56:03;;;;;;;18.57;12.07;;;;;;;4.01;87.06;103279.81;5030420;28;21021;-70
2022/03/27 00:58:28;;;;;;;19.53;11.43;;;;;;;3.95;87.27;103272.56;5045548;28;20283;-70
2022/03/27 01:01:19;;;;;;;19.63;11.87;;;;;;;3.92;86.92;103279.03;5049038;28;20186;-71
2022/03/27 01:03:47;;;;;;;19.90;10.97;;;;;;;3.85;87.10;103280.16;5048115;28;20273;-71
2022/03/27 01:06:33;;;;;;;19.10;11.57;;;;;;;3.84;88.11;103280.94;5030306;28;20210;-71
2022/03/27 01:11:43;;;;;;;20.60;11.73;;;;;;;3.83;88.43;103289.28;5044147;28;20202;-71
2022/03/27 01:14:09;;;;;;;20.83;10.90;;;;;;;3.73;88.16;103284.16;5049627;28;20677;-71
2022/03/27 01:16:47;;;;;;;18.30;11.33;;;;;;;3.68;87.63;103280.34;5050132;28;20292;-72
2022/03/27 01:19:15;;;;;;;17.90;10.80;;;;;;;3.71;87.59;103280.63;5048820;28;20282;-71
2022/03/27 01:21:44;;;;;;;16.80;9.73;;;;;;;3.61;87.14;103278.06;5056854;28;20177;-71
2022/03/27 01:24:10;;;;;;;18.80;11.50;;;;;;;3.62;86.94;103281.47;5055691;28;20561;-71
2022/03/27 01:26:37;;;;;;;22.10;10.30;;;;;;;3.64;86.79;103285.91;5036202;28;20292;-71
2022/03/27 01:29:04;;;;;;;23.50;11.17;;;;;;;3.60;86.83;103276.31;5045711;28;20264;-71
2022/03/27 01:31:30;;;;;;;23.77;12.40;;;;;;;3.61;87.26;103275.53;5049896;28;20317;-71
2022/03/27 01:33:55;;;;;;;32.90;13.93;;;;;;;3.60;87.14;103281.38;5046186;28;20734;-70
2022/03/27 01:36:25;;;;;;;50.27;16.30;;;;;;;3.69;87.95;103281.25;5028548;28;20301;-71
2022/03/27 01:38:52;;;;;;;46.27;17.63;;;;;;;3.52;89.18;103279.81;5030025;28;20695;-70
2022/03/27 01:41:17;;;;;;;93.17;21.07;;;;;;;3.54;90.73;103279.94;5029816;28;20249;-71
2022/03/27 01:43:43;;;;;;;57.93;20.00;;;;;;;3.57;91.60;103278.56;5030067;28;20198;-71
2022/03/27 01:46:08;;;;;;;50.60;19.17;;;;;;;3.58;90.89;103276.94;5029609;28;20210;-70
2022/03/27 01:48:34;;;;;;;82.93;20.27;;;;;;;3.52;92.38;103277.28;5032058;28;20197;-70
2022/03/27 01:51:00;;;;;;;66.33;20.73;;;;;;;3.46;92.00;103274.22;5052899;28;20673;-71
2022/03/27 01:53:25;;;;;;;82.67;21.37;;;;;;;3.43;92.63;103273.94;5065107;28;20192;-70
2022/03/27 01:55:50;;;;;;;68.07;20.27;;;;;;;3.47;92.89;103283.59;5029126;28;20209;-71
2022/03/27 01:58:16;;;;;;;49.83;20.63;;;;;;;3.45;93.56;103281.69;5044679;28;20224;-71
2022/03/27 02:00:44;;;;;;;38.57;20.03;;;;;;;3.36;93.40;103278.34;5037628;28;20225;-71
2022/03/27 02:03:10;;;;;;;51.77;20.37;;;;;;;3.32;93.02;103283.91;5029443;28;20730;-70
2022/03/27 02:05:36;;;;;;;28.60;19.03;;;;;;;3.36;92.92;103283.41;5035702;28;20201;-70
2022/03/27 02:08:01;;;;;;;40.03;19.63;;;;;;;3.33;92.39;103288.19;5049397;28;20198;-71
2022/03/27 02:10:27;;;;;;;57.40;19.50;;;;;;;3.34;93.12;103284.91;5049148;28;20258;-70
2022/03/27 02:12:52;;;;;;;27.47;19.03;;;;;;;3.35;93.15;103282.50;5047774;28;20206;-71
2022/03/27 02:15:17;;;;;;;49.53;20.03;;;;;;;3.32;92.90;103287.31;5033331;28;20201;-70
2022/03/27 02:17:43;;;;;;;28.10;18.73;;;;;;;3.29;92.87;103294.66;5046620;28;20197;-71
2022/03/27 02:20:09;;;;;;;29.33;17.73;;;;;;;3.37;91.86;103293.69;5030632;28;20190;-71
2022/03/27 02:22:35;;;;;;;29.00;17.40;;;;;;;3.35;93.26;103290.09;5029382;28;20265;-71
2022/03/27 02:25:00;;;;;;;48.73;19.30;;;;;;;3.33;93.08;103289.09;5034980;28;20276;-70
2022/03/27 02:27:26;;;;;;;37.33;20.17;;;;;;;3.35;93.55;103302.78;5047407;28;20721;-70
2022/03/27 02:29:51;;;;;;;43.53;20.90;;;;;;;3.42;94.44;103296.59;5047909;28;20219;-71
2022/03/27 02:32:16;;;;;;;43.43;20.87;;;;;;;3.41;93.87;103294.84;5044736;28;20212;-71
2022/03/27 02:34:41;;;;;;;51.53;21.90;;;;;;;3.41;94.47;103294.84;5039953;28;20195;-71
2022/03/27 02:37:07;;;;;;;41.47;22.27;;;;;;;3.40;94.22;103298.13;5027841;28;20217;-70
2022/03/27 02:39:33;;;;;;;45.97;21.50;;;;;;;3.39;95.63;103302.28;5027957;28;20182;-71
2022/03/27 02:41:58;;;;;;;40.03;21.50;;;;;;;3.43;94.42;103298.38;5029127;28;20190;-71
2022/03/27 02:44:24;;;;;;;39.63;21.60;;;;;;;3.44;95.67;103303.56;5029067;28;20183;-71
2022/03/27 02:46:50;;;;;;;40.80;21.80;;;;;;;3.36;94.90;103303.66;5032634;28;20267;-71
2022/03/27 02:49:16;;;;;;;46.23;21.90;;;;;;;3.32;95.28;103299.97;5039667;28;20278;-70
2022/03/27 02:51:44;;;;;;;40.37;23.10;;;;;;;3.32;96.06;103297.44;5027609;28;20206;-72
2022/03/27 02:54:10;;;;;;;43.67;22.77;;;;;;;3.33;96.60;103289.09;5029080;28;20301;-71
2022/03/27 02:56:35;;;;;;;50.03;23.43;;;;;;;3.34;96.16;103282.38;5028740;28;20217;-71
2022/03/27 02:59:00;;;;;;;51.40;24.33;;;;;;;3.41;96.52;103295.69;5029187;28;20202;-71
2022/03/27 03:01:26;;;;;;;45.20;25.63;;;;;;;3.39;96.41;103287.09;5029088;28;20179;-71
2022/03/27 03:03:51;;;;;;;47.37;27.30;;;;;;;3.40;97.26;103285.47;5054673;28;20691;-70
2022/03/27 03:06:18;;;;;;;50.50;26.47;;;;;;;3.41;97.78;103290.63;5033099;28;20211;-70
2022/03/27 03:08:44;;;;;;;44.27;25.40;;;;;;;3.40;98.60;103288.88;5046798;28;20217;-71
2022/03/27 03:11:13;;;;;;;41.87;24.13;;;;;;;3.44;98.53;103284.94;5042213;28;20298;-71
2022/03/27 03:13:39;;;;;;;49.70;25.13;;;;;;;3.43;98.56;103281.53;5058879;28;20280;-70
2022/03/27 03:16:06;;;;;;;48.20;25.73;;;;;;;3.44;97.89;103287.47;5048154;28;20300;-70
2022/03/27 03:18:34;;;;;;;53.60;25.87;;;;;;;3.43;98.06;103285.72;5048038;28;20190;-70
2022/03/27 03:20:59;;;;;;;50.50;24.57;;;;;;;3.42;98.65;103279.78;5042733;28;20185;-70
2022/03/27 03:23:24;;;;;;;64.73;28.00;;;;;;;3.44;98.08;103283.31;5029082;28;20253;-71
2022/03/27 03:25:50;;;;;;;55.83;28.80;;;;;;;3.48;98.83;103276.88;5045751;28;20232;-70
2022/03/27 03:28:15;;;;;;;58.20;28.80;;;;;;;3.49;98.37;103286.25;5044377;28;20260;-70
2022/03/27 03:30:40;;;;;;;56.97;29.67;;;;;;;3.48;99.80;103285.38;5034994;28;20194;-70
2022/03/27 03:33:06;;;;;;;54.13;29.83;;;;;;;3.49;100.00;103271.06;5032212;28;20198;-70
2022/03/27 03:35:32;;;;;;;63.07;30.03;;;;;;;3.42;100.00;103262.06;5046651;28;20210;-71
2022/03/27 03:37:58;;;;;;;67.60;31.37;;;;;;;3.45;100.00;103264.81;5052307;28;20259;-70
2022/03/27 03:40:23;;;;;;;54.33;30.37;;;;;;;3.39;100.00;103256.72;5036811;28;20190;-70
2022/03/27 03:42:48;;;;;;;65.13;31.33;;;;;;;3.44;100.00;103257.09;5032300;28;20760;-70
2022/03/27 03:45:14;;;;;;;55.93;32.80;;;;;;;3.43;100.00;103255.31;5046599;28;20276;-70
2022/03/27 03:47:39;;;;;;;75.57;34.07;;;;;;;3.40;100.00;103252.56;5052042;28;20186;-70
2022/03/27 03:50:05;;;;;;;85.13;34.27;;;;;;;3.43;100.00;103257.84;5058597;28;20216;-70
2022/03/27 03:52:30;;;;;;;86.80;34.37;;;;;;;3.45;100.00;103253.84;5036996;28;20213;-70
2022/03/27 03:54:56;;;;;;;111.67;36.07;;;;;;;3.44;100.00;103262.16;5050658;28;20196;-70
2022/03/27 03:57:21;;;;;;;113.50;36.20;;;;;;;3.47;100.00;103258.28;5035591;28;20317;-70
2022/03/27 03:59:46;;;;;;;71.03;34.83;;;;;;;3.52;100.00;103253.59;5032042;28;20190;-71
2022/03/27 04:02:14;;;;;;;140.07;38.83;;;;;;;3.43;100.00;103258.75;5032314;28;20190;-70
2022/03/27 04:04:39;;;;;;;93.63;37.93;;;;;;;3.41;100.00;103255.19;5031889;28;20643;-70
2022/03/27 04:07:04;;;;;;;117.10;40.57;;;;;;;3.40;100.00;103255.94;5035604;28;20223;-70
2022/03/27 04:09:30;;;;;;;90.27;40.20;;;;;;;3.44;100.00;103260.53;5043555;28;20277;-70
2022/03/27 04:11:56;;;;;;;79.27;37.30;;;;;;;3.48;100.00;103252.44;5048819;28;20561;-71
2022/03/27 04:14:22;;;;;;;88.63;38.67;;;;;;;3.47;100.00;103255.75;5044763;28;20607;-71
2022/03/27 04:16:48;;;;;;;78.30;38.47;;;;;;;3.52;100.00;103262.09;5031179;28;20198;-71
2022/03/27 04:19:14;;;;;;;76.33;38.27;;;;;;;3.59;100.00;103266.91;5031381;28;20191;-70
2022/03/27 04:21:40;;;;;;;70.57;38.83;;;;;;;3.59;100.00;103266.03;5033990;28;20686;-71
2022/03/27 04:24:06;;;;;;;83.87;38.63;;;;;;;3.61;100.00;103270.47;5049840;28;20315;-71
2022/03/27 04:26:32;;;;;;;77.60;38.43;;;;;;;3.62;100.00;103278.94;5049516;28;20221;-71
2022/03/27 04:28:57;;;;;;;73.87;37.37;;;;;;;3.61;100.00;103287.31;5032317;28;20210;-70
2022/03/27 04:31:23;;;;;;;84.70;37.37;;;;;;;3.58;100.00;103280.34;5031026;28;20237;-70
2022/03/27 04:33:48;;;;;;;98.00;34.97;;;;;;;3.64;100.00;103279.97;5034981;28;20196;-70
2022/03/27 04:36:13;;;;;;;91.77;32.77;;;;;;;3.69;100.00;103273.66;5031314;28;20206;-72
2022/03/27 04:38:39;;;;;;;83.57;29.63;;;;;;;3.66;100.00;103269.22;5029110;28;20285;-70
2022/03/27 04:41:04;;;;;;;89.00;30.83;;;;;;;3.66;100.00;103271.75;5031242;28;20197;-70
2022/03/27 04:43:29;;;;;;;82.67;30.53;;;;;;;3.64;100.00;103270.72;5030730;28;20198;-71
2022/03/27 04:45:55;;;;;;;77.00;29.93;;;;;;;3.69;100.00;103276.19;5049221;28;20213;-70
2022/03/27 04:48:21;;;;;;;68.43;28.23;;;;;;;3.64;100.00;103269.84;5050107;28;20557;-70
2022/03/27 04:50:46;;;;;;;61.07;30.17;;;;;;;3.68;100.00;103274.44;5053135;28;20186;-71
2022/03/27 04:53:12;;;;;;;68.83;29.47;;;;;;;3.63;100.00;103271.47;5049221;28;20690;-71
2022/03/27 04:55:39;;;;;;;60.00;27.07;;;;;;;3.63;100.00;103275.69;5031657;28;20223;-70
2022/03/27 04:58:07;;;;;;;59.97;26.70;;;;;;;3.56;100.00;103280.97;5030742;28;20184;-71
2022/03/27 05:00:33;;;;;;;76.10;27.40;;;;;;;3.50;100.00;103280.44;5036778;28;20220;-70
2022/03/27 05:02:58;;;;;;;66.33;26.97;;;;;;;3.56;100.00;103281.84;5039923;28;20621;-70
2022/03/27 05:05:24;;;;;;;46.90;24.77;;;;;;;3.53;100.00;103273.09;5043853;28;20305;-70
2022/03/27 05:07:49;;;;;;;54.27;23.47;;;;;;;3.51;100.00;103277.13;5033297;28;20268;-69
2022/03/27 05:10:14;;;;;;;45.87;22.47;;;;;;;3.52;100.00;103283.97;5038979;28;20591;-69
2022/03/27 05:12:40;;;;;;;53.30;23.00;;;;;;;3.49;100.00;103288.78;5012591;28;21020;-70
2022/03/27 05:15:06;;;;;;;49.37;21.50;;;;;;;3.50;100.00;103283.84;5029660;28;20568;-70
2022/03/27 05:17:31;;;;;;;35.77;19.87;;;;;;;3.51;100.00;103284.75;5031495;28;20193;-70
2022/03/27 05:19:57;;;;;;;35.50;19.43;;;;;;;3.52;100.00;103286.50;5042380;28;20756;-71
2022/03/27 05:22:22;;;;;;;44.00;20.87;;;;;;;3.54;100.00;103290.06;5035412;28;20281;-70
2022/03/27 05:24:48;;;;;;;37.53;19.03;;;;;;;3.52;100.00;103294.09;5029548;28;20194;-70
2022/03/27 05:27:17;;;;;;;43.97;19.07;;;;;;;3.51;100.00;103293.25;5029711;28;20206;-71
2022/03/27 05:29:42;;;;;;;44.00;19.47;;;;;;;3.57;100.00;103292.84;5033437;28;20190;-71
2022/03/27 05:32:08;;;;;;;36.33;19.43;;;;;;;3.55;100.00;103300.31;5045111;28;20287;-71
2022/03/27 05:34:33;;;;;;;37.53;19.10;;;;;;;3.61;100.00;103300.88;5028465;28;20600;-71
2022/03/27 05:36:59;;;;;;;38.80;19.90;;;;;;;3.64;100.00;103306.19;5029701;28;20695;-70
2022/03/27 05:39:24;;;;;;;38.40;18.73;;;;;;;3.66;100.00;103302.16;5028469;28;20198;-70
2022/03/27 05:41:50;;;;;;;41.40;17.83;;;;;;;3.62;100.00;103291.59;5045516;28;20221;-71
2022/03/27 05:44:15;;;;;;;34.27;17.90;;;;;;;3.66;100.00;103302.16;5049631;28;20245;-71
2022/03/27 05:46:40;;;;;;;29.27;15.77;;;;;;;3.67;100.00;103305.56;5045817;28;20210;-71
2022/03/27 05:49:05;;;;;;;33.87;16.67;;;;;;;3.65;100.00;103302.00;5043107;28;20220;-70
2022/03/27 05:51:31;;;;;;;23.07;14.60;;;;;;;3.67;100.00;103301.38;5055148;28;20304;-70
2022/03/27 05:53:56;;;;;;;21.83;13.27;;;;;;;3.68;100.00;103303.16;5029692;28;20285;-70
2022/03/27 05:56:22;;;;;;;19.30;12.10;;;;;;;3.64;100.00;103297.72;5029263;28;20239;-70
2022/03/27 05:58:47;;;;;;;20.83;13.13;;;;;;;3.71;99.29;103305.06;5029549;28;20212;-69
2022/03/27 06:01:14;;;;;;;23.77;12.40;;;;;;;3.73;98.94;103312.03;5027749;28;20220;-71
2022/03/27 06:03:39;;;;;;;21.23;11.90;;;;;;;3.77;98.27;103308.16;5029460;28;20190;-69
2022/03/27 06:06:05;;;;;;;18.93;11.00;;;;;;;3.71;97.36;103312.66;5027925;28;20202;-70
2022/03/27 06:08:30;;;;;;;21.33;10.70;;;;;;;3.74;96.25;103308.78;5038652;28;20592;-70
2022/03/27 06:10:55;;;;;;;29.20;11.60;;;;;;;3.69;96.93;103307.47;5057302;28;20730;-69
2022/03/27 06:13:21;;;;;;;23.57;11.10;;;;;;;3.76;97.02;103306.34;5026912;28;20752;-70
2022/03/27 06:15:46;;;;;;;17.60;10.57;;;;;;;3.78;96.37;103315.84;5048717;28;20214;-70
2022/03/27 06:18:12;;;;;;;21.37;10.17;;;;;;;3.84;96.71;103302.81;5049097;28;20193;-70
2022/03/27 06:20:39;;;;;;;23.53;11.07;;;;;;;3.89;95.92;103309.16;5030570;28;20194;-70
2022/03/27 06:23:06;;;;;;;18.60;10.07;;;;;;;3.85;95.87;103304.59;5047965;28;20651;-70
2022/03/27 06:25:32;;;;;;;25.63;10.83;;;;;;;3.66;96.54;103317.34;5048452;28;20691;-70
2022/03/27 06:27:57;;;;;;;22.20;10.57;;;;;;;3.74;96.77;103318.00;5030573;28;20186;-72
2022/03/27 06:30:26;;;;;;;18.77;10.63;;;;;;;3.88;96.71;103318.44;5027452;28;20679;-71
2022/03/27 06:32:51;;;;;;;24.43;11.37;;;;;;;3.87;96.67;103318.31;5028653;28;20221;-71
2022/03/27 06:35:19;;;;;;;18.77;11.00;;;;;;;3.94;97.22;103316.41;5028417;28;20186;-70
2022/03/27 06:37:45;;;;;;;19.70;11.57;;;;;;;4.04;97.23;103311.38;5043806;28;20221;-70
2022/03/27 06:40:13;;;;;;;14.40;10.07;;;;;;;4.13;96.48;103303.63;5048528;28;20232;-69
2022/03/27 06:42:39;;;;;;;24.90;11.13;;;;;;;4.14;95.90;103311.38;5063865;28;20259;-70
2022/03/27 06:45:05;;;;;;;20.37;11.13;;;;;;;4.20;95.14;103319.53;5048307;28;20186;-70
2022/03/27 06:47:32;;;;;;;22.17;11.17;;;;;;;4.21;95.28;103312.78;5046752;28;20186;-70
2022/03/27 06:49:58;;;;;;;23.63;11.20;;;;;;;4.27;94.89;103315.84;5070730;28;20223;-71
2022/03/27 06:52:25;;;;;;;21.23;10.23;;;;;;;4.26;94.66;103314.06;5063509;28;20291;-70
2022/03/27 06:54:51;;;;;;;29.00;11.30;;;;;;;4.16;94.97;103314.94;5048969;28;20252;-70
2022/03/27 06:57:17;;;;;;;36.17;11.63;;;;;;;4.05;96.15;103324.94;5048445;28;20213;-70
2022/03/27 07:05:14;;;;;;;36.27;11.53;;;;;;;4.07;96.83;103334.44;5032605;28;20628;-71
2022/03/27 07:07:39;;;;;;;57.60;12.90;;;;;;;4.01;97.00;103338.97;5035906;28;20272;-71
2022/03/27 07:10:05;;;;;;;47.43;13.70;;;;;;;4.04;97.75;103336.72;5055778;28;20196;-70
2022/03/27 07:12:30;;;;;;;33.97;14.20;;;;;;;4.07;97.28;103346.22;5037898;28;20224;-70
2022/03/27 07:14:57;;;;;;;31.47;14.90;;;;;;;4.23;98.15;103347.66;5052519;28;20789;-71
2022/03/27 07:17:22;;;;;;;31.90;14.43;;;;;;;4.32;98.06;103345.03;5052220;28;20267;-70
2022/03/27 07:19:48;;;;;;;53.67;15.50;;;;;;;4.29;97.68;103340.59;5050374;28;20185;-70
2022/03/27 07:22:14;;;;;;;26.07;14.50;;;;;;;4.48;98.24;103348.97;5035544;28;20178;-71
2022/03/27 07:24:41;;;;;;;24.93;14.73;;;;;;;4.63;98.24;103352.78;5049778;28;20185;-71
2022/03/27 07:27:08;;;;;;;46.57;13.73;;;;;;;4.61;97.85;103355.94;5050188;28;20726;-70
2022/03/27 07:29:35;;;;;;;23.57;12.70;;;;;;;4.55;97.75;103353.78;5050400;28;20201;-70
2022/03/27 07:32:01;;;;;;;34.87;13.23;;;;;;;4.60;97.99;103354.19;5034718;28;20248;-70
2022/03/27 07:34:26;;;;;;;20.17;12.53;;;;;;;4.75;98.06;103346.16;5037996;28;20185;-70
2022/03/27 07:36:52;;;;;;;17.93;12.00;;;;;;;4.94;97.68;103351.13;5051641;28;20251;-71
2022/03/27 07:39:17;;;;;;;23.33;12.93;;;;;;;5.12;96.81;103340.81;5042867;28;20201;-70
2022/03/27 07:41:42;;;;;;;22.67;13.07;;;;;;;5.24;95.89;103344.34;5032098;28;20202;-70
2022/03/27 07:44:08;;;;;;;25.23;11.90;;;;;;;5.41;95.28;103345.69;5031772;28;20194;-70
2022/03/27 07:46:33;;;;;;;19.13;11.30;;;;;;;5.48;94.70;103335.25;5031821;28;20886;-70
2022/03/27 07:48:58;;;;;;;19.37;10.33;;;;;;;5.47;93.48;103336.00;5047266;28;20214;-70
2022/03/27 07:51:24;;;;;;;15.17;10.23;;;;;;;5.62;92.36;103334.69;5045261;28;20222;-70
2022/03/27 07:53:51;;;;;;;17.00;10.53;;;;;;;5.75;91.70;103338.31;5051160;28;20251;-69
2022/03/27 07:56:17;;;;;;;15.93;9.87;;;;;;;5.75;91.54;103337.44;5041659;28;20257;-70
2022/03/27 07:58:43;;;;;;;19.90;10.47;;;;;;;5.76;91.90;103336.69;5030544;28;20221;-69
2022/03/27 08:01:09;;;;;;;18.97;10.43;;;;;;;5.79;91.66;103342.88;5032364;28;20605;-70
2022/03/27 08:03:38;;;;;;;17.70;10.20;;;;;;;5.89;92.10;103334.34;5049139;28;20225;-69
2022/03/27 08:06:03;;;;;;;19.13;10.50;;;;;;;5.91;91.59;103333.72;5031873;28;20775;-70
2022/03/27 08:08:28;;;;;;;19.60;10.77;;;;;;;5.96;91.76;103331.50;5030267;28;20277;-70
2022/03/27 08:10:55;;;;;;;18.53;10.53;;;;;;;5.88;92.32;103336.00;5032347;28;20194;-70
2022/03/27 08:13:20;;;;;;;29.57;10.93;;;;;;;5.99;92.13;103325.00;5041501;28;20202;-70
2022/03/27 08:15:45;;;;;;;18.40;10.83;;;;;;;6.15;91.75;103319.44;5050467;28;20425;-71
2022/03/27 08:18:13;;;;;;;17.67;10.40;;;;;;;6.29;91.53;103318.84;5049759;28;20189;-71
2022/03/27 08:20:39;;;;;;;17.73;10.40;;;;;;;6.28;91.98;103314.53;5030059;28;20226;-71
2022/03/27 08:23:04;;;;;;;22.37;11.27;;;;;;;6.41;91.92;103312.16;5039323;28;20555;-71
2022/03/27 08:28:14;;;;;;;20.03;11.40;;;;;;;6.50;92.05;103313.69;5032370;28;20233;-71
2022/03/27 08:30:40;;;;;;;25.63;13.10;;;;;;;6.61;90.58;103317.06;5044950;28;20184;-71
2022/03/27 08:33:05;;;;;;;25.30;12.60;;;;;;;6.64;90.87;103310.53;5050624;28;20317;-71
2022/03/27 08:35:30;;;;;;;25.43;11.90;;;;;;;6.79;90.69;103311.69;5048846;28;20241;-72
2022/03/27 08:37:56;;;;;;;22.07;11.47;;;;;;;6.91;90.61;103312.56;5050656;28;20200;-72
2022/03/27 08:40:22;;;;;;;20.03;10.90;;;;;;;7.03;89.71;103316.03;5049419;28;20213;-71
2022/03/27 08:42:48;;;;;;;29.97;14.13;;;;;;;7.12;89.75;103309.06;5048041;28;20288;-72
2022/03/27 08:45:13;;;;;;;22.00;12.17;;;;;;;7.09;89.51;103313.06;5036994;28;20182;-72
2022/03/27 08:47:40;;;;;;;28.93;12.90;;;;;;;7.25;89.45;103311.72;5050578;28;20178;-72
2022/03/27 08:50:29;;;;;;;27.30;13.60;;;;;;;7.29;90.33;103318.81;5052692;28;20190;-72
2022/03/27 08:53:00;;;;;;;27.97;13.83;;;;;;;7.37;89.42;103317.69;5030575;28;20194;-72
2022/03/27 08:55:50;;;;;;;25.87;13.00;;;;;;;7.40;88.77;103312.81;5033973;28;20214;-72
2022/03/27 08:58:16;;;;;;;28.47;13.97;;;;;;;7.39;88.87;103311.06;5038779;28;20190;-72
2022/03/27 09:00:41;;;;;;;26.97;13.73;;;;;;;7.44;89.00;103316.47;5034122;28;20605;-71
2022/03/27 09:03:07;;;;;;;26.17;12.73;;;;;;;7.53;89.46;103317.13;5030173;28;20183;-71
2022/03/27 09:05:37;;;;;;;24.33;13.27;;;;;;;7.58;89.00;103325.97;5030521;28;20253;-70
2022/03/27 09:08:09;;;;;;;24.83;14.30;;;;;;;7.68;88.23;103321.66;5030426;28;20240;-71
2022/03/27 09:10:36;;;;;;;30.60;15.03;;;;;;;7.78;88.87;103331.72;5030601;28;20217;-71
2022/03/27 09:13:02;;;;;;;29.63;14.03;;;;;;;7.85;88.46;103318.63;5046264;28;20213;-71
2022/03/27 09:15:28;;;;;;;30.90;13.80;;;;;;;7.91;87.80;103323.25;5034253;28;20202;-71
2022/03/27 09:17:55;;;;;;;21.63;13.37;;;;;;;7.98;87.60;103323.81;5035192;28;20206;-71
2022/03/27 09:20:43;;;;;;;28.33;14.23;;;;;;;7.98;87.69;103317.81;5031955;28;20260;-71
2022/03/27 09:23:22;;;;;;;27.27;13.97;;;;;;;8.08;86.94;103320.22;5029691;28;20182;-71
2022/03/27 09:26:11;;;;;;;24.53;14.73;;;;;;;8.14;86.01;103321.50;5029635;28;20297;-71
2022/03/27 09:28:41;;;;;;;24.03;14.20;;;;;;;8.13;86.72;103318.84;5038225;28;20197;-71
2022/03/27 09:31:13;;;;;;;25.60;13.77;;;;;;;8.22;87.60;103320.41;5047259;28;20423;-70
2022/03/27 09:33:46;;;;;;;23.50;14.07;;;;;;;8.27;86.19;103318.16;5028971;28;20309;-71
2022/03/27 09:36:13;;;;;;;22.93;13.47;;;;;;;8.34;85.84;103313.56;5030041;28;20276;-70
2022/03/27 09:38:38;;;;;;;20.13;13.53;;;;;;;8.52;85.39;103307.16;5028593;28;20193;-72
2022/03/27 09:41:05;;;;;;;22.63;13.97;;;;;;;8.59;85.14;103303.34;5041817;28;20185;-70
2022/03/27 09:43:31;;;;;;;25.03;14.70;;;;;;;8.81;84.29;103299.75;5049802;28;20197;-71
2022/03/27 09:45:59;;;;;;;29.13;15.40;;;;;;;8.90;84.61;103295.25;5045911;28;20593;-70
2022/03/27 09:48:25;;;;;;;23.63;14.63;;;;;;;9.00;83.79;103289.97;5032559;28;20640;-71
2022/03/27 09:50:53;;;;;;;26.17;14.67;;;;;;;9.10;82.62;103284.66;5050151;28;20185;-71
2022/03/27 09:53:26;;;;;;;28.90;13.97;;;;;;;9.31;82.49;103286.00;5049975;28;20192;-71
2022/03/27 09:55:58;;;;;;;25.17;13.97;;;;;;;9.38;81.10;103285.63;5045138;28;20785;-72
2022/03/27 09:58:36;;;;;;;20.93;12.43;;;;;;;9.46;81.78;103289.56;5055429;28;20190;-71
2022/03/27 10:01:12;;;;;;;28.10;13.67;;;;;;;9.43;82.80;103291.03;5035392;28;20595;-72
2022/03/27 10:04:14;;;;;;;24.90;13.80;;;;;;;9.60;82.36;103282.75;5039155;28;20547;-71
2022/03/27 10:06:40;;;;;;;24.40;13.50;;;;;;;9.51;81.80;103277.06;5029405;28;20756;-72
2022/03/27 10:09:13;;;;;;;21.10;13.23;;;;;;;9.80;80.92;103280.63;5045967;28;20186;-71
2022/03/27 10:11:41;;;;;;;22.13;13.63;;;;;;;9.63;81.26;103278.69;5049188;28;20249;-71
2022/03/27 10:14:08;;;;;;;27.50;13.07;;;;;;;9.94;81.00;103277.25;5048124;28;20683;-71
2022/03/27 10:16:43;;;;;;;25.03;13.00;;;;;;;10.47;78.81;103268.53;5044436;28;20617;-72
2022/03/27 10:19:20;;;;;;;24.57;13.37;;;;;;;11.07;77.69;103253.25;5048041;28;20571;-71
2022/03/27 10:21:49;;;;;;;21.73;11.97;;;;;;;11.74;74.33;103256.13;5027946;28;20182;-71
2022/03/27 10:24:15;;;;;;;16.53;10.57;;;;;;;12.74;69.90;103250.25;5029198;28;20248;-71
2022/03/27 10:26:45;;;;;;;19.23;11.00;;;;;;;12.52;70.60;103247.41;5029001;28;20571;-71
2022/03/27 10:29:12;;;;;;;17.73;10.70;;;;;;;13.27;67.53;103233.16;5029346;28;20171;-71
2022/03/27 10:31:38;;;;;;;16.67;10.37;;;;;;;13.40;67.02;103238.06;5028489;28;20218;-71
2022/03/27 10:34:06;;;;;;;16.20;10.13;;;;;;;14.31;66.10;103227.63;5032105;28;20190;-70
2022/03/27 10:36:50;;;;;;;16.93;10.00;;;;;;;15.17;60.98;103232.94;5053808;28;20693;-73
2022/03/27 10:39:24;;;;;;;19.17;10.47;;;;;;;13.52;65.62;103233.47;5053171;28;20178;-71
2022/03/27 10:42:03;;;;;;;17.10;9.80;;;;;;;16.02;58.10;103227.56;5040380;28;20178;-71
2022/03/27 10:44:34;;;;;;;18.70;9.80;;;;;;;17.92;51.95;103221.66;5033365;28;20202;-72
2022/03/27 10:47:14;;;;;;;15.10;9.40;;;;;;;17.62;52.95;103218.19;5033164;28;20206;-71
2022/03/27 10:49:42;;;;;;;12.67;9.90;;;;;;;18.16;52.01;103225.81;5032676;28;20236;-70
2022/03/27 10:52:08;;;;;;;17.50;10.50;;;;;;;16.18;55.59;103234.16;5031895;28;20210;-71
2022/03/27 10:54:57;;;;;;;15.27;10.67;;;;;;;16.77;55.32;103214.66;5058679;28;20650;-70
2022/03/27 10:57:45;;;;;;;15.50;10.37;;;;;;;17.74;53.11;103210.78;5055168;28;20252;-72
2022/03/27 11:00:12;;;;;;;15.33;10.73;;;;;;;16.83;54.19;103212.28;5043944;28;20194;-72
2022/03/27 11:02:44;;;;;;;13.53;10.07;;;;;;;16.26;56.16;103217.22;5033100;28;20186;-71
2022/03/27 11:05:31;;;;;;;15.30;10.77;;;;;;;16.34;56.26;103216.63;5033102;28;20593;-71
2022/03/27 11:08:16;;;;;;;19.30;10.90;;;;;;;16.57;58.06;103209.69;5031679;28;20195;-71
2022/03/27 11:10:49;;;;;;;16.43;12.00;;;;;;;17.44;54.75;103199.50;5032915;28;20190;-73
2022/03/27 11:13:27;;;;;;;12.83;10.43;;;;;;;16.97;55.64;103190.31;5047762;28;20244;-71
2022/03/27 11:16:04;;;;;;;14.90;10.53;;;;;;;16.80;55.39;103193.22;5052479;28;20214;-71
2022/03/27 11:18:37;;;;;;;14.80;11.20;;;;;;;17.90;53.38;103190.50;5051330;28;20182;-72
2022/03/27 11:21:04;;;;;;;13.27;10.47;;;;;;;18.24;52.08;103192.28;5052500;28;20182;-72
2022/03/27 11:23:31;;;;;;;14.07;10.57;;;;;;;18.39;51.67;103179.72;5051250;28;20269;-71
2022/03/27 11:25:58;;;;;;;14.57;10.83;;;;;;;18.44;51.15;103180.72;5052255;28;20691;-72